createdAt,value
2019-05-01T00:04:41.163Z,12.29
2019-05-01T00:10:37.555Z,12.35
2019-05-01T00:13:24.407Z,12.37
2019-05-01T00:16:11.321Z,12.41
2019-05-01T00:18:58.108Z,12.43
2019-05-01T00:21:52.045Z,12.47
2019-05-01T00:24:38.527Z,12.49
2019-05-01T00:27:24.999Z,12.53
2019-05-01T00:30:12.587Z,12.57
2019-05-01T00:32:59.972Z,12.61
2019-05-01T00:35:47.574Z,12.64
2019-05-01T00:38:38.293Z,12.64
2019-05-01T00:41:25.545Z,12.65
2019-05-01T00:44:12.423Z,12.67
2019-05-01T00:46:59.609Z,12.68
2019-05-01T00:49:46.158Z,13.36
2019-05-01T00:52:32.774Z,12.93
2019-05-01T00:58:55.306Z,12.88
2019-05-01T01:02:00.592Z,12.88
2019-05-01T01:04:47.558Z,12.90
2019-05-01T01:07:48.352Z,12.92
2019-05-01T01:10:34.899Z,12.91
2019-05-01T01:13:21.375Z,12.93
2019-05-01T01:16:08.200Z,12.92
2019-05-01T01:19:09.545Z,13.58
2019-05-01T01:21:56.330Z,13.12
2019-05-01T01:24:50.313Z,13.02
2019-05-01T01:27:37.819Z,12.97
2019-05-01T01:30:24.720Z,12.93
2019-05-01T01:33:11.404Z,12.88
2019-05-01T01:35:58.668Z,12.88
2019-05-01T01:38:45.248Z,12.87
2019-05-01T01:41:32.059Z,12.85
2019-05-01T01:44:36.798Z,12.81
2019-05-01T01:47:23.585Z,12.81
2019-05-01T01:50:12.780Z,12.80
2019-05-01T01:52:59.452Z,12.78
2019-05-01T01:55:46.135Z,13.46
2019-05-01T01:58:32.594Z,12.99
2019-05-01T02:01:31.854Z,13.60
2019-05-01T02:04:18.716Z,13.08
2019-05-01T02:07:05.622Z,12.95
2019-05-01T02:09:52.312Z,12.88
2019-05-01T02:12:39.122Z,12.83
2019-05-01T02:18:31.457Z,12.70
2019-05-01T02:21:18.874Z,12.67
2019-05-01T02:24:05.897Z,12.63
2019-05-01T02:26:52.419Z,13.30
2019-05-01T02:29:44.843Z,13.50
2019-05-01T02:32:31.853Z,12.93
2019-05-01T02:35:18.557Z,12.81
2019-05-01T02:38:04.959Z,12.73
2019-05-01T02:40:54.204Z,12.68
2019-05-01T02:43:47.818Z,12.67
2019-05-01T02:46:35.106Z,12.60
2019-05-01T02:49:34.385Z,12.59
2019-05-01T02:52:20.905Z,12.57
2019-05-01T02:55:07.605Z,12.52
2019-05-01T02:57:54.854Z,12.48
2019-05-01T03:00:41.747Z,13.09
2019-05-01T03:03:28.861Z,12.57
2019-05-01T03:06:29.761Z,12.46
2019-05-01T03:09:16.904Z,12.30
2019-05-01T03:12:03.811Z,12.22
2019-05-01T03:14:52.341Z,12.14
2019-05-01T03:17:48.889Z,12.08
2019-05-01T03:20:38.770Z,12.68
2019-05-01T03:23:25.304Z,12.16
2019-05-01T03:26:12.497Z,12.70
2019-05-01T03:28:59.094Z,12.19
2019-05-01T03:32:13.002Z,12.06
2019-05-01T03:34:32.829Z,11.99
2019-05-01T03:37:19.954Z,11.94
2019-05-01T03:40:07.042Z,11.92
2019-05-01T03:42:53.656Z,11.89
2019-05-01T03:45:40.471Z,12.55
2019-05-01T03:48:27.675Z,12.11
2019-05-01T03:51:14.871Z,12.04
2019-05-01T03:54:01.752Z,12.68
2019-05-01T03:56:48.792Z,12.21
2019-05-01T03:59:35.824Z,12.12
2019-05-01T04:02:37.385Z,12.09
2019-05-01T04:05:24.131Z,12.06
2019-05-01T04:08:17.617Z,12.05
2019-05-01T04:11:07.012Z,12.02
2019-05-01T04:13:53.821Z,12.02
2019-05-01T04:16:40.325Z,12.72
2019-05-01T04:19:34.723Z,12.93
2019-05-01T04:22:21.816Z,13.08
2019-05-01T04:25:08.523Z,12.50
2019-05-01T04:27:58.525Z,12.34
2019-05-01T04:30:42.092Z,12.30
2019-05-01T04:33:29.282Z,12.25
2019-05-01T04:36:29.062Z,12.95
2019-05-01T04:39:15.764Z,12.44
2019-05-01T04:42:09.222Z,12.34
2019-05-01T04:44:55.851Z,12.30
2019-05-01T04:47:49.713Z,12.28
2019-05-01T04:50:36.310Z,12.26
2019-05-01T04:53:23.824Z,12.23
2019-05-01T04:56:10.327Z,12.23
2019-05-01T04:58:57.246Z,12.25
2019-05-01T05:02:02.096Z,12.26
2019-05-01T05:04:49.694Z,12.31
2019-05-01T05:07:37.303Z,12.33
2019-05-01T05:10:23.880Z,12.36
2019-05-01T05:13:19.230Z,12.38
2019-05-01T05:16:11.822Z,12.41
2019-05-01T05:18:59.045Z,12.47
2019-05-01T05:21:46.082Z,12.45
2019-05-01T05:24:33.015Z,13.30
2019-05-01T05:27:19.545Z,12.81
2019-05-01T05:30:06.340Z,13.60
2019-05-01T05:32:53.138Z,13.09
2019-05-01T05:35:40.103Z,13.04
2019-05-01T05:38:33.050Z,13.04
2019-05-01T05:41:20.039Z,13.07
2019-05-01T05:44:06.813Z,13.12
2019-05-01T05:46:53.701Z,13.15
2019-05-01T05:49:40.662Z,13.21
2019-05-01T05:52:32.688Z,13.28
2019-05-01T05:55:22.433Z,13.31
2019-05-01T05:58:09.342Z,13.35
2019-05-01T06:01:13.062Z,13.35
2019-05-01T06:04:03.638Z,13.44
2019-05-01T06:06:56.778Z,13.50
2019-05-01T06:09:44.775Z,13.51
2019-05-01T06:12:37.254Z,13.53
2019-05-01T06:15:25.836Z,13.57
2019-05-01T06:18:12.907Z,13.60
2019-05-01T06:21:02.211Z,14.49
2019-05-01T06:23:52.704Z,13.83
2019-05-01T06:26:39.147Z,13.60
2019-05-01T06:29:22.873Z,13.57
2019-05-01T06:32:09.518Z,13.58
2019-05-01T06:34:58.525Z,13.62
2019-05-01T06:38:00.863Z,13.64
2019-05-01T06:40:46.222Z,13.73
2019-05-01T06:43:43.668Z,13.87
2019-05-01T06:46:32.190Z,14.02
2019-05-01T06:49:33.911Z,14.19
2019-05-01T06:52:20.590Z,14.27
2019-05-01T06:55:07.778Z,14.44
2019-05-01T06:58:01.544Z,14.54
2019-05-01T07:00:48.276Z,14.67
2019-05-01T07:03:35.037Z,14.81
2019-05-01T07:06:35.899Z,14.94
2019-05-01T07:09:28.202Z,14.96
2019-05-01T07:12:09.123Z,15.15
2019-05-01T07:14:55.736Z,15.21
2019-05-01T07:17:43.818Z,15.15
2019-05-01T07:20:39.740Z,15.07
2019-05-01T07:23:26.446Z,14.96
2019-05-01T07:26:13.697Z,14.95
2019-05-01T07:29:09.966Z,14.95
2019-05-01T07:31:55.474Z,14.99
2019-05-01T07:34:42.815Z,15.11
2019-05-01T07:37:29.661Z,15.11
2019-05-01T07:40:16.242Z,15.10
2019-05-01T07:43:11.577Z,15.24
2019-05-01T07:46:02.363Z,16.59
2019-05-01T07:48:48.064Z,16.95
2019-05-01T07:51:37.679Z,15.90
2019-05-01T07:54:21.541Z,16.96
2019-05-01T07:57:08.359Z,16.01
2019-05-01T07:59:58.140Z,15.81
2019-05-01T08:02:44.447Z,15.65
2019-05-01T08:05:30.852Z,15.51
2019-05-01T08:08:19.691Z,15.56
2019-05-01T08:11:10.141Z,15.52
2019-05-01T08:13:53.738Z,15.69
2019-05-01T08:16:42.563Z,15.81
2019-05-01T08:19:34.788Z,15.82
2019-05-01T08:22:17.326Z,15.74
2019-05-01T08:25:04.100Z,15.87
2019-05-01T08:27:56.488Z,16.08
2019-05-01T08:30:54.076Z,16.37
2019-05-01T08:33:49.829Z,16.43
2019-05-01T08:36:33.697Z,18.06
2019-05-01T08:39:20.677Z,18.62
2019-05-01T08:42:22.074Z,17.88
2019-05-01T08:45:08.621Z,17.45
2019-05-01T08:48:01.509Z,17.50
2019-05-01T08:50:47.971Z,17.62
2019-05-01T08:53:35.290Z,17.90
2019-05-01T08:56:23.481Z,18.23
2019-05-01T08:59:09.522Z,18.29
2019-05-01T09:02:10.438Z,18.21
2019-05-01T09:05:02.385Z,18.30
2019-05-01T09:10:54.533Z,18.15
2019-05-01T09:13:36.825Z,17.94
2019-05-01T09:16:28.298Z,17.81
2019-05-01T09:19:11.195Z,17.81
2019-05-01T09:21:58.053Z,19.32
2019-05-01T09:24:52.048Z,18.18
2019-05-01T09:27:42.004Z,18.14
2019-05-01T09:30:34.413Z,18.14
2019-05-01T09:33:21.076Z,19.63
2019-05-01T09:36:07.893Z,18.52
2019-05-01T09:38:54.577Z,18.39
2019-05-01T09:41:43.192Z,18.34
2019-05-01T09:44:29.131Z,18.36
2019-05-01T09:47:15.919Z,18.36
2019-05-01T09:50:02.543Z,18.23
2019-05-01T09:52:55.182Z,18.14
2019-05-01T09:55:50.196Z,19.63
2019-05-01T09:58:36.858Z,18.46
2019-05-01T10:01:31.561Z,18.45
2019-05-01T10:04:10.819Z,18.41
2019-05-01T10:06:57.233Z,18.63
2019-05-01T10:09:47.275Z,20.14
2019-05-01T10:12:30.701Z,19.05
2019-05-01T10:15:17.787Z,19.01
2019-05-01T10:18:04.847Z,19.12
2019-05-01T10:20:52.022Z,19.12
2019-05-01T10:23:47.064Z,19.12
2019-05-01T10:26:32.641Z,19.32
2019-05-01T10:32:46.383Z,19.91
2019-05-01T10:35:43.484Z,20.00
2019-05-01T10:38:29.596Z,20.06
2019-05-01T10:41:16.256Z,20.15
2019-05-01T10:44:02.931Z,20.06
2019-05-01T10:49:55.171Z,20.05
2019-05-01T10:52:42.292Z,20.12
2019-05-01T10:55:28.822Z,20.14
2019-05-01T10:58:17.961Z,20.18
2019-05-01T11:01:11.631Z,20.29
2019-05-01T11:03:58.218Z,20.31
2019-05-01T11:06:45.654Z,20.32
2019-05-01T11:09:35.864Z,20.47
2019-05-01T11:12:22.773Z,20.62
2019-05-01T11:15:09.527Z,20.73
2019-05-01T11:17:56.057Z,20.79
2019-05-01T11:20:42.963Z,20.79
2019-05-01T11:23:29.679Z,20.84
2019-05-01T11:26:16.475Z,20.84
2019-05-01T11:29:02.998Z,21.01
2019-05-01T11:31:55.828Z,21.01
2019-05-01T11:34:45.021Z,20.99
2019-05-01T11:37:31.712Z,21.01
2019-05-01T11:40:18.611Z,20.91
2019-05-01T11:43:05.093Z,21.08
2019-05-01T11:45:51.644Z,21.55
2019-05-01T11:48:38.629Z,21.91
2019-05-01T11:51:26.228Z,21.84
2019-05-01T11:54:13.042Z,21.68
2019-05-01T11:57:00.953Z,21.95
2019-05-01T11:59:47.889Z,23.90
2019-05-01T12:02:34.921Z,22.92
2019-05-01T12:05:21.608Z,22.81
2019-05-01T12:08:08.316Z,22.59
2019-05-01T12:10:55.149Z,22.33
2019-05-01T12:13:44.524Z,22.19
2019-05-01T12:16:49.033Z,22.01
2019-05-01T12:19:36.451Z,21.71
2019-05-01T12:22:23.677Z,21.58
2019-05-01T12:25:13.393Z,21.37
2019-05-01T12:28:01.594Z,22.99
2019-05-01T12:30:48.782Z,21.99
2019-05-01T12:33:36.250Z,22.03
2019-05-01T12:36:35.717Z,22.11
2019-05-01T12:39:18.570Z,23.55
2019-05-01T12:42:05.329Z,22.47
2019-05-01T12:44:52.014Z,22.23
2019-05-01T12:47:38.760Z,22.13
2019-05-01T12:50:26.089Z,22.12
2019-05-01T12:53:15.368Z,22.12
2019-05-01T12:56:05.016Z,22.32
2019-05-01T12:58:52.334Z,22.34
2019-05-01T13:01:38.845Z,22.61
2019-05-01T13:04:25.701Z,24.17
2019-05-01T13:07:12.367Z,24.65
2019-05-01T13:09:59.175Z,23.45
2019-05-01T13:12:45.674Z,23.37
2019-05-01T13:15:32.527Z,23.16
2019-05-01T13:18:19.597Z,24.32
2019-05-01T13:21:06.451Z,23.34
2019-05-01T13:23:56.079Z,23.44
2019-05-01T13:26:46.052Z,23.70
2019-05-01T13:29:33.324Z,25.27
2019-05-01T13:32:32.671Z,24.01
2019-05-01T13:35:19.763Z,23.61
2019-05-01T13:38:06.415Z,23.36
2019-05-01T13:40:53.298Z,23.20
2019-05-01T13:43:40.254Z,22.96
2019-05-01T13:46:28.246Z,22.59
2019-05-01T13:49:14.806Z,22.65
2019-05-01T13:52:01.665Z,22.70
2019-05-01T13:54:48.589Z,22.91
2019-05-01T13:57:36.819Z,22.89
2019-05-01T14:00:23.377Z,23.32
2019-05-01T14:03:10.075Z,23.61
2019-05-01T14:05:56.809Z,23.36
2019-05-01T14:08:43.822Z,23.27
2019-05-01T14:11:30.362Z,23.05
2019-05-01T14:14:17.336Z,23.06
2019-05-01T14:17:03.943Z,22.89
2019-05-01T14:19:59.975Z,23.14
2019-05-01T14:22:55.919Z,23.28
2019-05-01T14:26:01.452Z,23.47
2019-05-01T14:28:49.034Z,23.36
2019-05-01T14:31:36.098Z,23.20
2019-05-01T14:34:22.673Z,23.23
2019-05-01T14:37:09.484Z,23.39
2019-05-01T14:39:55.958Z,23.42
2019-05-01T14:42:42.868Z,23.39
2019-05-01T14:45:29.407Z,23.44
2019-05-01T14:48:16.005Z,23.57
2019-05-01T14:51:02.453Z,23.66
2019-05-01T14:53:49.405Z,23.72
2019-05-01T14:56:36.522Z,23.61
2019-05-01T14:59:23.125Z,23.43
2019-05-01T15:02:09.934Z,23.61
2019-05-01T15:04:56.552Z,24.02
2019-05-01T15:07:44.139Z,24.68
2019-05-01T15:10:30.271Z,26.79
2019-05-01T15:13:20.220Z,25.43
2019-05-01T15:16:24.916Z,25.59
2019-05-01T15:19:11.393Z,25.86
2019-05-01T15:22:02.631Z,26.28
2019-05-01T15:24:47.778Z,26.39
2019-05-01T15:27:34.767Z,26.40
2019-05-01T15:30:21.700Z,26.30
2019-05-01T15:33:08.634Z,25.59
2019-05-01T15:35:55.137Z,24.58
2019-05-01T15:38:41.578Z,23.90
2019-05-01T15:41:28.406Z,23.43
2019-05-01T15:44:18.795Z,24.69
2019-05-01T15:47:05.900Z,23.23
2019-05-01T15:49:52.500Z,22.89
2019-05-01T15:52:39.340Z,22.67
2019-05-01T15:55:26.173Z,22.45
2019-05-01T15:58:12.979Z,22.30
2019-05-01T16:01:00.168Z,22.10
2019-05-01T16:03:47.048Z,21.92
2019-05-01T16:06:33.898Z,21.73
2019-05-01T16:09:20.889Z,21.68
2019-05-01T16:12:16.791Z,22.72
2019-05-01T16:15:03.258Z,21.74
2019-05-01T16:17:49.804Z,21.62
2019-05-01T16:20:38.465Z,22.81
2019-05-01T16:23:25.751Z,22.09
2019-05-01T16:26:12.535Z,22.36
2019-05-01T16:29:00.497Z,22.69
2019-05-01T16:31:46.930Z,22.53
2019-05-01T16:34:33.604Z,22.38
2019-05-01T16:37:21.556Z,22.16
2019-05-01T16:40:14.869Z,21.99
2019-05-01T16:43:01.928Z,21.72
2019-05-01T16:45:48.433Z,21.63
2019-05-01T16:48:35.558Z,21.46
2019-05-01T16:51:22.476Z,21.42
2019-05-01T16:54:09.046Z,22.46
2019-05-01T16:56:57.449Z,22.65
2019-05-01T16:59:44.697Z,21.99
2019-05-01T17:02:31.357Z,22.01
2019-05-01T17:05:36.255Z,22.23
2019-05-01T17:08:36.051Z,22.42
2019-05-01T17:11:16.122Z,23.90
2019-05-01T17:14:02.709Z,23.38
2019-05-01T17:16:49.715Z,23.68
2019-05-01T17:19:39.532Z,23.81
2019-05-01T17:22:26.713Z,24.00
2019-05-01T17:25:13.540Z,24.26
2019-05-01T17:28:02.790Z,24.35
2019-05-01T17:30:46.833Z,24.15
2019-05-01T17:33:33.539Z,23.55
2019-05-01T17:36:20.778Z,24.19
2019-05-01T17:39:07.263Z,22.39
2019-05-01T17:41:57.543Z,21.77
2019-05-01T17:44:41.575Z,21.32
2019-05-01T17:47:28.075Z,21.01
2019-05-01T17:50:16.363Z,20.76
2019-05-01T17:53:01.934Z,20.41
2019-05-01T17:55:49.559Z,20.14
2019-05-01T17:58:36.676Z,20.96
2019-05-01T18:01:27.959Z,20.00
2019-05-01T18:04:19.442Z,19.71
2019-05-01T18:07:06.030Z,19.43
2019-05-01T18:09:55.716Z,19.17
2019-05-01T18:12:39.867Z,18.94
2019-05-01T18:15:26.793Z,18.73
2019-05-01T18:18:15.106Z,18.56
2019-05-01T18:21:00.917Z,18.40
2019-05-01T18:24:05.418Z,18.25
2019-05-01T18:27:10.381Z,18.03
2019-05-01T18:29:57.438Z,17.88
2019-05-01T18:32:47.503Z,17.76
2019-05-01T18:35:31.777Z,17.62
2019-05-01T18:38:22.964Z,17.48
2019-05-01T18:41:27.782Z,17.35
2019-05-01T18:44:14.622Z,17.18
2019-05-01T18:47:01.051Z,17.07
2019-05-01T18:49:48.014Z,16.99
2019-05-01T18:52:34.689Z,16.87
2019-05-01T18:55:25.831Z,16.77
2019-05-01T18:58:22.533Z,16.65
2019-05-01T19:01:10.816Z,16.55
2019-05-01T19:03:56.101Z,16.46
2019-05-01T19:06:45.050Z,16.37
2019-05-01T19:09:30.865Z,16.30
2019-05-01T19:15:25.472Z,16.88
2019-05-01T19:18:10.325Z,16.23
2019-05-01T19:21:00.104Z,16.01
2019-05-01T19:27:06.749Z,15.59
2019-05-01T19:29:53.359Z,15.37
2019-05-01T19:32:39.970Z,15.16
2019-05-01T19:35:28.989Z,14.98
2019-05-01T19:38:13.537Z,14.80
2019-05-01T19:41:03.577Z,14.62
2019-05-01T19:43:48.230Z,14.48
2019-05-01T19:46:34.674Z,14.34
2019-05-01T19:49:24.723Z,14.20
2019-05-01T19:52:07.959Z,14.10
2019-05-01T19:54:54.749Z,13.98
2019-05-01T19:57:41.668Z,14.71
2019-05-01T20:00:50.289Z,14.07
2019-05-01T20:03:38.564Z,13.80
2019-05-01T20:06:24.504Z,13.63
2019-05-01T20:09:11.014Z,13.52
2019-05-01T20:11:58.728Z,13.42
2019-05-01T20:14:45.425Z,13.31
2019-05-01T20:17:32.629Z,13.22
2019-05-01T20:20:20.077Z,13.17
2019-05-01T20:23:06.801Z,13.08
2019-05-01T20:25:55.913Z,13.77
2019-05-01T20:28:40.247Z,13.14
2019-05-01T20:31:30.698Z,13.78
2019-05-01T20:34:17.201Z,13.14
2019-05-01T20:37:02.032Z,12.93
2019-05-01T20:39:48.731Z,12.80
2019-05-01T20:42:35.538Z,12.70
2019-05-01T20:45:22.195Z,12.57
2019-05-01T20:48:10.178Z,12.51
2019-05-01T20:50:58.039Z,13.23
2019-05-01T20:53:47.429Z,12.62
2019-05-01T20:56:37.685Z,12.50
2019-05-01T20:59:24.421Z,12.44
2019-05-01T21:02:10.953Z,12.38
2019-05-01T21:05:06.707Z,12.33
2019-05-01T21:08:08.272Z,12.31
2019-05-01T21:11:01.225Z,12.29
2019-05-01T21:13:56.698Z,12.20
2019-05-01T21:16:39.664Z,12.15
2019-05-01T21:19:25.726Z,12.11
2019-05-01T21:22:11.714Z,12.05
2019-05-01T21:25:05.864Z,11.97
2019-05-01T21:27:54.165Z,11.94
2019-05-01T21:30:45.759Z,11.94
2019-05-01T21:33:27.659Z,11.87
2019-05-01T21:36:14.892Z,11.86
2019-05-01T21:39:01.449Z,11.84
2019-05-01T21:41:55.264Z,11.79
2019-05-01T21:44:43.632Z,11.68
2019-05-01T21:47:29.492Z,11.61
2019-05-01T21:50:22.828Z,12.28
2019-05-01T21:53:06.877Z,11.72
2019-05-01T21:56:06.271Z,11.58
2019-05-01T21:58:52.177Z,11.49
2019-05-01T22:01:39.015Z,12.18
2019-05-01T22:04:28.119Z,11.63
2019-05-01T22:07:13.500Z,11.49
2019-05-01T22:10:00.116Z,11.44
2019-05-01T22:12:48.995Z,11.38
2019-05-01T22:15:41.998Z,12.00
2019-05-01T22:18:28.103Z,11.44
2019-05-01T22:21:17.812Z,11.30
2019-05-01T22:27:31.834Z,11.14
2019-05-01T22:30:30.093Z,11.04
2019-05-01T22:33:16.980Z,11.00
2019-05-01T22:36:03.819Z,10.96
2019-05-01T22:38:51.021Z,11.64
2019-05-01T22:41:51.561Z,11.10
2019-05-01T22:44:45.374Z,10.91
2019-05-01T22:47:32.386Z,10.83
2019-05-01T22:50:19.446Z,10.80
2019-05-01T22:53:07.946Z,10.71
2019-05-01T22:55:57.231Z,10.59
2019-05-01T22:58:40.178Z,10.48
2019-05-01T23:01:26.682Z,10.45
2019-05-01T23:04:17.224Z,11.16
2019-05-01T23:07:00.017Z,10.62
2019-05-01T23:09:46.561Z,11.25
2019-05-01T23:13:51.298Z,11.47
2019-05-01T23:16:38.606Z,10.85
2019-05-01T23:22:31.885Z,10.55
2019-05-01T23:25:18.638Z,10.58
2019-05-01T23:28:06.112Z,11.25
2019-05-01T23:30:52.569Z,10.79
2019-05-01T23:33:40.061Z,10.69
2019-05-01T23:36:27.623Z,10.64
2019-05-01T23:39:14.983Z,11.25
2019-05-01T23:42:09.912Z,11.36
2019-05-01T23:44:57.607Z,10.73
2019-05-01T23:47:44.437Z,10.50
2019-05-01T23:50:31.937Z,11.08
2019-05-01T23:53:19.859Z,10.56
2019-05-01T23:56:07.210Z,10.43
2019-05-01T23:58:55.107Z,11.04
